sensor_id;sensor_type;location;lat;lon;timestamp;temperature;humidity
3756;DHT22;1893;52.526;13.360;2022-07-17T00:00:03;14.40;99.90
3756;DHT22;1893;52.526;13.360;2022-07-17T00:02:28;14.40;99.90
3756;DHT22;1893;52.526;13.360;2022-07-17T00:04:54;14.40;99.90
3756;DHT22;1893;52.526;13.360;2022-07-17T00:07:20;14.40;99.90
3756;DHT22;1893;52.526;13.360;2022-07-17T00:09:45;14.40;99.90
3756;DHT22;1893;52.526;13.360;2022-07-17T00:12:11;14.30;99.90
3756;DHT22;1893;52.526;13.360;2022-07-17T00:14:36;14.30;99.90
3756;DHT22;1893;52.526;13.360;2022-07-17T00:17:02;14.20;99.90
3756;DHT22;1893;52.526;13.360;2022-07-17T00:19:28;14.20;1.00
3756;DHT22;1893;52.526;13.360;2022-07-17T00:21:53;14.20;1.00
3756;DHT22;1893;52.526;13.360;2022-07-17T00:24:19;14.10;1.00
3756;DHT22;1893;52.526;13.360;2022-07-17T00:26:49;14.10;1.00
3756;DHT22;1893;52.526;13.360;2022-07-17T00:29:15;14.10;1.00
3756;DHT22;1893;52.526;13.360;2022-07-17T00:31:41;14.10;1.00
3756;DHT22;1893;52.526;13.360;2022-07-17T00:34:07;14.10;1.00
3756;DHT22;1893;52.526;13.360;2022-07-17T00:36:33;14.10;1.00
3756;DHT22;1893;52.526;13.360;2022-07-17T00:38:58;14.10;1.00
3756;DHT22;1893;52.526;13.360;2022-07-17T00:41:24;14.00;1.00
3756;DHT22;1893;52.526;13.360;2022-07-17T00:43:49;13.90;1.00
3756;DHT22;1893;52.526;13.360;2022-07-17T00:46:15;13.90;1.00
3756;DHT22;1893;52.526;13.360;2022-07-17T00:48:41;13.90;1.00
3756;DHT22;1893;52.526;13.360;2022-07-17T00:51:06;13.90;1.00
3756;DHT22;1893;52.526;13.360;2022-07-17T00:53:34;13.90;22.90
3756;DHT22;1893;52.526;13.360;2022-07-17T00:56:05;13.90;99.70
3756;DHT22;1893;52.526;13.360;2022-07-17T00:58:34;13.80;99.90
3756;DHT22;1893;52.526;13.360;2022-07-17T01:01:03;13.70;99.90
3756;DHT22;1893;52.526;13.360;2022-07-17T01:03:31;13.70;99.90
3756;DHT22;1893;52.526;13.360;2022-07-17T01:05:57;13.60;99.90
3756;DHT22;1893;52.526;13.360;2022-07-17T01:08:22;13.60;99.90
3756;DHT22;1893;52.526;13.360;2022-07-17T01:10:48;13.60;99.90
3756;DHT22;1893;52.526;13.360;2022-07-17T01:13:14;13.60;1.00
3756;DHT22;1893;52.526;13.360;2022-07-17T01:15:41;13.60;99.90
3756;DHT22;1893;52.526;13.360;2022-07-17T01:18:08;13.60;99.90
3756;DHT22;1893;52.526;13.360;2022-07-17T01:20:35;13.50;1.00
3756;DHT22;1893;52.526;13.360;2022-07-17T01:23:01;13.50;1.00
3756;DHT22;1893;52.526;13.360;2022-07-17T01:25:26;13.50;1.00
3756;DHT22;1893;52.526;13.360;2022-07-17T01:27:52;13.50;1.00
3756;DHT22;1893;52.526;13.360;2022-07-17T01:30:18;13.40;1.00
3756;DHT22;1893;52.526;13.360;2022-07-17T01:32:44;13.30;82.60
3756;DHT22;1893;52.526;13.360;2022-07-17T01:35:11;13.40;1.00
3756;DHT22;1893;52.526;13.360;2022-07-17T01:37:38;13.40;1.00
3756;DHT22;1893;52.526;13.360;2022-07-17T01:40:05;13.40;1.00
3756;DHT22;1893;52.526;13.360;2022-07-17T01:42:31;13.40;1.00
3756;DHT22;1893;52.526;13.360;2022-07-17T01:44:57;13.30;96.90
3756;DHT22;1893;52.526;13.360;2022-07-17T01:47:23;13.30;24.80
3756;DHT22;1893;52.526;13.360;2022-07-17T01:49:51;13.20;99.90
3756;DHT22;1893;52.526;13.360;2022-07-17T01:52:17;13.20;99.90
3756;DHT22;1893;52.526;13.360;2022-07-17T01:54:43;13.20;1.00
3756;DHT22;1893;52.526;13.360;2022-07-17T01:57:10;13.30;99.90
3756;DHT22;1893;52.526;13.360;2022-07-17T01:59:36;13.20;1.00
3756;DHT22;1893;52.526;13.360;2022-07-17T02:02:03;13.10;1.00
3756;DHT22;1893;52.526;13.360;2022-07-17T02:04:30;13.10;1.00
3756;DHT22;1893;52.526;13.360;2022-07-17T02:06:56;13.10;1.70
3756;DHT22;1893;52.526;13.360;2022-07-17T02:09:22;13.10;99.90
3756;DHT22;1893;52.526;13.360;2022-07-17T02:11:48;13.10;99.90
3756;DHT22;1893;52.526;13.360;2022-07-17T02:14:13;13.10;1.00
3756;DHT22;1893;52.526;13.360;2022-07-17T02:16:39;13.00;99.90
3756;DHT22;1893;52.526;13.360;2022-07-17T02:19:04;13.10;1.00
3756;DHT22;1893;52.526;13.360;2022-07-17T02:21:30;13.10;15.70
3756;DHT22;1893;52.526;13.360;2022-07-17T02:23:56;13.00;1.00
3756;DHT22;1893;52.526;13.360;2022-07-17T02:26:21;13.00;1.00
3756;DHT22;1893;52.526;13.360;2022-07-17T02:28:47;13.10;1.00
3756;DHT22;1893;52.526;13.360;2022-07-17T02:31:12;13.10;1.00
3756;DHT22;1893;52.526;13.360;2022-07-17T02:33:38;13.00;99.90
3756;DHT22;1893;52.526;13.360;2022-07-17T02:36:04;13.00;1.00
3756;DHT22;1893;52.526;13.360;2022-07-17T02:38:30;13.00;1.00
3756;DHT22;1893;52.526;13.360;2022-07-17T02:40:55;12.90;75.50
3756;DHT22;1893;52.526;13.360;2022-07-17T02:43:21;12.90;1.00
3756;DHT22;1893;52.526;13.360;2022-07-17T02:45:46;12.90;1.00
3756;DHT22;1893;52.526;13.360;2022-07-17T02:48:12;12.90;1.00
3756;DHT22;1893;52.526;13.360;2022-07-17T02:50:37;12.90;1.00
3756;DHT22;1893;52.526;13.360;2022-07-17T02:53:03;12.80;1.00
3756;DHT22;1893;52.526;13.360;2022-07-17T02:55:29;12.80;99.90
3756;DHT22;1893;52.526;13.360;2022-07-17T02:57:54;12.70;99.90
3756;DHT22;1893;52.526;13.360;2022-07-17T03:00:20;12.80;99.90
3756;DHT22;1893;52.526;13.360;2022-07-17T03:02:46;12.70;99.90
3756;DHT22;1893;52.526;13.360;2022-07-17T03:05:13;12.70;1.00
3756;DHT22;1893;52.526;13.360;2022-07-17T03:07:39;12.70;1.00
3756;DHT22;1893;52.526;13.360;2022-07-17T03:10:06;12.70;99.90
3756;DHT22;1893;52.526;13.360;2022-07-17T03:12:32;12.60;99.90
3756;DHT22;1893;52.526;13.360;2022-07-17T03:14:57;12.60;1.00
3756;DHT22;1893;52.526;13.360;2022-07-17T03:17:23;12.60;1.00
3756;DHT22;1893;52.526;13.360;2022-07-17T03:19:49;12.60;1.00
3756;DHT22;1893;52.526;13.360;2022-07-17T03:22:14;12.60;1.00
3756;DHT22;1893;52.526;13.360;2022-07-17T03:24:40;12.60;1.00
3756;DHT22;1893;52.526;13.360;2022-07-17T03:27:05;12.50;5.70
3756;DHT22;1893;52.526;13.360;2022-07-17T03:29:31;12.50;49.10
3756;DHT22;1893;52.526;13.360;2022-07-17T03:31:56;12.50;99.90
3756;DHT22;1893;52.526;13.360;2022-07-17T03:34:22;12.50;99.90
3756;DHT22;1893;52.526;13.360;2022-07-17T03:36:47;12.50;99.90
3756;DHT22;1893;52.526;13.360;2022-07-17T03:39:13;12.50;99.90
3756;DHT22;1893;52.526;13.360;2022-07-17T03:41:39;12.50;99.90
3756;DHT22;1893;52.526;13.360;2022-07-17T03:44:05;12.40;99.90
3756;DHT22;1893;52.526;13.360;2022-07-17T03:46:30;12.50;99.90
3756;DHT22;1893;52.526;13.360;2022-07-17T03:48:56;12.40;1.00
3756;DHT22;1893;52.526;13.360;2022-07-17T03:51:21;12.40;1.00
3756;DHT22;1893;52.526;13.360;2022-07-17T03:53:47;12.40;1.00
3756;DHT22;1893;52.526;13.360;2022-07-17T03:56:12;12.40;1.00
3756;DHT22;1893;52.526;13.360;2022-07-17T03:58:38;12.50;1.00
3756;DHT22;1893;52.526;13.360;2022-07-17T04:01:03;12.40;1.00
3756;DHT22;1893;52.526;13.360;2022-07-17T04:03:29;12.40;1.00
3756;DHT22;1893;52.526;13.360;2022-07-17T04:05:54;12.40;1.00
3756;DHT22;1893;52.526;13.360;2022-07-17T04:08:20;12.50;1.00
3756;DHT22;1893;52.526;13.360;2022-07-17T04:10:46;12.60;1.00
3756;DHT22;1893;52.526;13.360;2022-07-17T04:13:11;12.50;1.00
3756;DHT22;1893;52.526;13.360;2022-07-17T04:15:37;12.60;1.00
3756;DHT22;1893;52.526;13.360;2022-07-17T04:18:22;12.70;1.00
3756;DHT22;1893;52.526;13.360;2022-07-17T04:20:48;12.70;1.00
3756;DHT22;1893;52.526;13.360;2022-07-17T04:23:14;12.80;1.00
3756;DHT22;1893;52.526;13.360;2022-07-17T04:25:40;12.80;1.00
3756;DHT22;1893;52.526;13.360;2022-07-17T04:28:06;12.80;1.00
3756;DHT22;1893;52.526;13.360;2022-07-17T04:30:32;12.90;1.00
3756;DHT22;1893;52.526;13.360;2022-07-17T04:32:58;13.00;99.90
3756;DHT22;1893;52.526;13.360;2022-07-17T04:35:23;13.00;99.90
3756;DHT22;1893;52.526;13.360;2022-07-17T04:37:49;13.10;99.90
3756;DHT22;1893;52.526;13.360;2022-07-17T04:40:14;13.10;1.00
3756;DHT22;1893;52.526;13.360;2022-07-17T04:42:40;13.10;99.90
3756;DHT22;1893;52.526;13.360;2022-07-17T04:45:06;13.20;99.90
3756;DHT22;1893;52.526;13.360;2022-07-17T04:47:33;13.20;99.90
3756;DHT22;1893;52.526;13.360;2022-07-17T04:49:59;13.20;99.90
3756;DHT22;1893;52.526;13.360;2022-07-17T04:52:25;13.20;99.90
3756;DHT22;1893;52.526;13.360;2022-07-17T04:54:50;13.20;99.90
3756;DHT22;1893;52.526;13.360;2022-07-17T04:57:16;13.30;99.90
3756;DHT22;1893;52.526;13.360;2022-07-17T04:59:41;13.50;99.90
3756;DHT22;1893;52.526;13.360;2022-07-17T05:02:07;13.40;99.90
3756;DHT22;1893;52.526;13.360;2022-07-17T05:04:33;13.50;99.90
3756;DHT22;1893;52.526;13.360;2022-07-17T05:06:58;13.60;99.90
3756;DHT22;1893;52.526;13.360;2022-07-17T05:09:24;13.60;9.60
3756;DHT22;1893;52.526;13.360;2022-07-17T05:11:49;13.60;1.00
3756;DHT22;1893;52.526;13.360;2022-07-17T05:14:15;13.60;1.00
3756;DHT22;1893;52.526;13.360;2022-07-17T05:16:40;13.70;1.00
3756;DHT22;1893;52.526;13.360;2022-07-17T05:19:06;13.80;99.90
3756;DHT22;1893;52.526;13.360;2022-07-17T05:21:32;13.90;99.90
3756;DHT22;1893;52.526;13.360;2022-07-17T05:23:57;13.90;99.90
3756;DHT22;1893;52.526;13.360;2022-07-17T05:26:25;14.00;1.00
3756;DHT22;1893;52.526;13.360;2022-07-17T05:28:51;14.10;99.90
3756;DHT22;1893;52.526;13.360;2022-07-17T05:31:16;14.10;99.90
3756;DHT22;1893;52.526;13.360;2022-07-17T05:33:42;14.10;1.00
3756;DHT22;1893;52.526;13.360;2022-07-17T05:36:08;14.30;84.90
3756;DHT22;1893;52.526;13.360;2022-07-17T05:38:34;14.30;2.80
3756;DHT22;1893;52.526;13.360;2022-07-17T05:41:00;14.40;1.00
3756;DHT22;1893;52.526;13.360;2022-07-17T05:43:25;14.50;99.90
3756;DHT22;1893;52.526;13.360;2022-07-17T05:45:55;14.60;1.00
3756;DHT22;1893;52.526;13.360;2022-07-17T05:48:21;14.60;99.90
3756;DHT22;1893;52.526;13.360;2022-07-17T05:50:47;14.50;99.90
3756;DHT22;1893;52.526;13.360;2022-07-17T05:53:12;14.60;99.90
3756;DHT22;1893;52.526;13.360;2022-07-17T05:55:39;14.60;1.00
3756;DHT22;1893;52.526;13.360;2022-07-17T05:58:05;14.90;1.00
3756;DHT22;1893;52.526;13.360;2022-07-17T06:00:30;15.00;1.00
3756;DHT22;1893;52.526;13.360;2022-07-17T06:02:56;15.10;1.00
3756;DHT22;1893;52.526;13.360;2022-07-17T06:05:21;15.20;99.90
3756;DHT22;1893;52.526;13.360;2022-07-17T06:07:47;15.20;99.90
3756;DHT22;1893;52.526;13.360;2022-07-17T06:10:12;15.20;99.90
3756;DHT22;1893;52.526;13.360;2022-07-17T06:12:38;15.20;99.90
3756;DHT22;1893;52.526;13.360;2022-07-17T06:15:04;15.20;99.90
3756;DHT22;1893;52.526;13.360;2022-07-17T06:17:30;15.40;99.90
3756;DHT22;1893;52.526;13.360;2022-07-17T06:19:55;15.60;1.00
3756;DHT22;1893;52.526;13.360;2022-07-17T06:22:21;15.80;1.00
3756;DHT22;1893;52.526;13.360;2022-07-17T06:24:47;15.90;1.00
3756;DHT22;1893;52.526;13.360;2022-07-17T06:27:13;15.80;1.00
3756;DHT22;1893;52.526;13.360;2022-07-17T06:29:39;16.00;1.00
3756;DHT22;1893;52.526;13.360;2022-07-17T06:32:05;16.10;1.00
3756;DHT22;1893;52.526;13.360;2022-07-17T06:34:31;16.30;1.00
3756;DHT22;1893;52.526;13.360;2022-07-17T06:36:56;16.30;1.00
3756;DHT22;1893;52.526;13.360;2022-07-17T06:39:22;16.30;1.00
3756;DHT22;1893;52.526;13.360;2022-07-17T06:41:47;16.10;1.00
3756;DHT22;1893;52.526;13.360;2022-07-17T06:44:13;16.10;1.00
3756;DHT22;1893;52.526;13.360;2022-07-17T06:46:39;16.00;1.00
3756;DHT22;1893;52.526;13.360;2022-07-17T06:49:04;16.00;1.00
3756;DHT22;1893;52.526;13.360;2022-07-17T06:51:30;16.10;1.00
3756;DHT22;1893;52.526;13.360;2022-07-17T06:53:55;16.20;1.00
3756;DHT22;1893;52.526;13.360;2022-07-17T06:56:21;16.30;1.00
3756;DHT22;1893;52.526;13.360;2022-07-17T06:58:46;16.20;1.00
3756;DHT22;1893;52.526;13.360;2022-07-17T07:01:12;16.00;1.00
3756;DHT22;1893;52.526;13.360;2022-07-17T07:03:38;16.00;1.00
3756;DHT22;1893;52.526;13.360;2022-07-17T07:06:03;15.80;1.00
3756;DHT22;1893;52.526;13.360;2022-07-17T07:08:29;15.80;1.00
3756;DHT22;1893;52.526;13.360;2022-07-17T07:10:54;15.90;1.00
3756;DHT22;1893;52.526;13.360;2022-07-17T07:13:20;16.00;1.00
3756;DHT22;1893;52.526;13.360;2022-07-17T07:15:46;16.20;1.00
3756;DHT22;1893;52.526;13.360;2022-07-17T07:18:12;16.30;1.00
3756;DHT22;1893;52.526;13.360;2022-07-17T07:20:38;16.20;1.00
3756;DHT22;1893;52.526;13.360;2022-07-17T07:23:03;16.30;1.00
3756;DHT22;1893;52.526;13.360;2022-07-17T07:25:30;16.20;1.00
3756;DHT22;1893;52.526;13.360;2022-07-17T07:27:56;16.20;1.00
3756;DHT22;1893;52.526;13.360;2022-07-17T07:30:21;16.10;1.00
3756;DHT22;1893;52.526;13.360;2022-07-17T07:32:47;16.20;1.00
3756;DHT22;1893;52.526;13.360;2022-07-17T07:35:12;16.30;1.00
3756;DHT22;1893;52.526;13.360;2022-07-17T07:37:38;16.30;1.00
3756;DHT22;1893;52.526;13.360;2022-07-17T07:40:04;16.30;1.00
3756;DHT22;1893;52.526;13.360;2022-07-17T07:42:30;16.40;1.00
3756;DHT22;1893;52.526;13.360;2022-07-17T07:44:56;16.50;1.00
3756;DHT22;1893;52.526;13.360;2022-07-17T07:47:21;16.60;1.00
3756;DHT22;1893;52.526;13.360;2022-07-17T07:49:47;16.50;1.00
3756;DHT22;1893;52.526;13.360;2022-07-17T07:52:13;16.40;1.00
3756;DHT22;1893;52.526;13.360;2022-07-17T07:54:38;16.40;1.00
3756;DHT22;1893;52.526;13.360;2022-07-17T07:57:04;16.30;1.00
3756;DHT22;1893;52.526;13.360;2022-07-17T07:59:30;16.10;1.00
3756;DHT22;1893;52.526;13.360;2022-07-17T08:01:59;16.30;1.00
3756;DHT22;1893;52.526;13.360;2022-07-17T08:04:24;16.40;1.00
3756;DHT22;1893;52.526;13.360;2022-07-17T08:06:50;16.40;1.00
3756;DHT22;1893;52.526;13.360;2022-07-17T08:09:16;16.40;1.00
3756;DHT22;1893;52.526;13.360;2022-07-17T08:11:42;16.40;1.00
3756;DHT22;1893;52.526;13.360;2022-07-17T08:14:07;16.30;1.00
3756;DHT22;1893;52.526;13.360;2022-07-17T08:16:33;16.30;1.00
3756;DHT22;1893;52.526;13.360;2022-07-17T08:18:58;16.30;1.00
3756;DHT22;1893;52.526;13.360;2022-07-17T08:21:24;16.40;1.00
3756;DHT22;1893;52.526;13.360;2022-07-17T08:23:49;16.20;1.00
3756;DHT22;1893;52.526;13.360;2022-07-17T08:26:15;16.30;1.00
3756;DHT22;1893;52.526;13.360;2022-07-17T08:28:40;16.30;1.00
3756;DHT22;1893;52.526;13.360;2022-07-17T08:31:06;16.50;1.00
3756;DHT22;1893;52.526;13.360;2022-07-17T08:33:32;16.60;1.00
3756;DHT22;1893;52.526;13.360;2022-07-17T08:35:57;16.80;1.00
3756;DHT22;1893;52.526;13.360;2022-07-17T08:38:23;16.80;1.00
3756;DHT22;1893;52.526;13.360;2022-07-17T08:40:49;17.00;1.00
3756;DHT22;1893;52.526;13.360;2022-07-17T08:43:17;17.10;99.90
3756;DHT22;1893;52.526;13.360;2022-07-17T08:45:43;17.40;99.90
3756;DHT22;1893;52.526;13.360;2022-07-17T08:48:12;17.50;99.90
3756;DHT22;1893;52.526;13.360;2022-07-17T08:50:39;18.00;99.90
3756;DHT22;1893;52.526;13.360;2022-07-17T08:53:05;18.00;99.90
3756;DHT22;1893;52.526;13.360;2022-07-17T08:55:30;17.50;99.90
3756;DHT22;1893;52.526;13.360;2022-07-17T08:57:56;17.50;99.90
3756;DHT22;1893;52.526;13.360;2022-07-17T09:00:23;17.40;99.90
3756;DHT22;1893;52.526;13.360;2022-07-17T09:03:06;17.60;99.90
3756;DHT22;1893;52.526;13.360;2022-07-17T09:05:38;17.90;99.90
3756;DHT22;1893;52.526;13.360;2022-07-17T09:08:06;17.80;99.90
3756;DHT22;1893;52.526;13.360;2022-07-17T09:10:42;18.00;99.90
3756;DHT22;1893;52.526;13.360;2022-07-17T09:13:28;18.10;99.90
3756;DHT22;1893;52.526;13.360;2022-07-17T09:15:57;18.30;99.90
3756;DHT22;1893;52.526;13.360;2022-07-17T09:18:24;18.30;99.90
3756;DHT22;1893;52.526;13.360;2022-07-17T09:20:52;18.20;99.90
3756;DHT22;1893;52.526;13.360;2022-07-17T09:23:19;18.30;99.90
3756;DHT22;1893;52.526;13.360;2022-07-17T09:25:51;18.50;99.90
3756;DHT22;1893;52.526;13.360;2022-07-17T09:28:17;18.50;99.90
3756;DHT22;1893;52.526;13.360;2022-07-17T09:30:46;18.30;99.90
3756;DHT22;1893;52.526;13.360;2022-07-17T09:33:16;18.30;99.90
3756;DHT22;1893;52.526;13.360;2022-07-17T09:35:54;18.60;99.90
3756;DHT22;1893;52.526;13.360;2022-07-17T09:38:36;18.70;99.90
3756;DHT22;1893;52.526;13.360;2022-07-17T09:41:07;19.00;99.90
3756;DHT22;1893;52.526;13.360;2022-07-17T09:44:00;18.70;99.90
3756;DHT22;1893;52.526;13.360;2022-07-17T09:46:30;18.40;99.90
3756;DHT22;1893;52.526;13.360;2022-07-17T09:48:58;18.10;99.90
3756;DHT22;1893;52.526;13.360;2022-07-17T09:51:27;18.00;99.90
3756;DHT22;1893;52.526;13.360;2022-07-17T09:53:58;18.10;99.90
3756;DHT22;1893;52.526;13.360;2022-07-17T09:56:27;18.10;99.90
3756;DHT22;1893;52.526;13.360;2022-07-17T09:59:08;18.10;99.90
3756;DHT22;1893;52.526;13.360;2022-07-17T10:01:35;18.00;99.90
3756;DHT22;1893;52.526;13.360;2022-07-17T10:04:02;18.40;99.90
3756;DHT22;1893;52.526;13.360;2022-07-17T10:06:28;18.50;99.90
3756;DHT22;1893;52.526;13.360;2022-07-17T10:08:55;18.70;99.90
3756;DHT22;1893;52.526;13.360;2022-07-17T10:11:23;19.00;99.90
3756;DHT22;1893;52.526;13.360;2022-07-17T10:13:50;19.30;99.90
3756;DHT22;1893;52.526;13.360;2022-07-17T10:16:27;20.00;99.90
3756;DHT22;1893;52.526;13.360;2022-07-17T10:18:54;20.40;99.90
3756;DHT22;1893;52.526;13.360;2022-07-17T10:21:21;21.10;99.90
3756;DHT22;1893;52.526;13.360;2022-07-17T10:24:05;21.40;99.90
3756;DHT22;1893;52.526;13.360;2022-07-17T10:26:40;21.40;99.90
3756;DHT22;1893;52.526;13.360;2022-07-17T10:29:36;21.30;99.90
3756;DHT22;1893;52.526;13.360;2022-07-17T10:32:07;21.30;99.90
3756;DHT22;1893;52.526;13.360;2022-07-17T10:34:41;21.10;99.90
3756;DHT22;1893;52.526;13.360;2022-07-17T10:37:18;21.60;99.90
3756;DHT22;1893;52.526;13.360;2022-07-17T10:39:58;22.10;99.90
3756;DHT22;1893;52.526;13.360;2022-07-17T10:42:49;22.80;99.90
3756;DHT22;1893;52.526;13.360;2022-07-17T10:45:21;23.70;99.90
3756;DHT22;1893;52.526;13.360;2022-07-17T10:55:54;24.50;99.90
3756;DHT22;1893;52.526;13.360;2022-07-17T10:58:24;24.90;99.90
3756;DHT22;1893;52.526;13.360;2022-07-17T11:01:01;24.80;99.90
3756;DHT22;1893;52.526;13.360;2022-07-17T11:03:29;24.70;99.90
3756;DHT22;1893;52.526;13.360;2022-07-17T11:06:05;24.40;97.40
3756;DHT22;1893;52.526;13.360;2022-07-17T11:08:30;23.90;95.40
3756;DHT22;1893;52.526;13.360;2022-07-17T11:10:56;23.30;99.90
3756;DHT22;1893;52.526;13.360;2022-07-17T11:13:22;23.20;91.80
3756;DHT22;1893;52.526;13.360;2022-07-17T11:15:48;22.60;86.90
3756;DHT22;1893;52.526;13.360;2022-07-17T11:18:19;22.70;89.60
3756;DHT22;1893;52.526;13.360;2022-07-17T11:20:54;22.30;85.80
3756;DHT22;1893;52.526;13.360;2022-07-17T11:23:22;22.70;90.80
3756;DHT22;1893;52.526;13.360;2022-07-17T11:26:06;23.30;93.40
3756;DHT22;1893;52.526;13.360;2022-07-17T11:28:33;23.70;93.80
3756;DHT22;1893;52.526;13.360;2022-07-17T11:31:00;24.20;95.40
3756;DHT22;1893;52.526;13.360;2022-07-17T11:33:26;24.10;93.50
3756;DHT22;1893;52.526;13.360;2022-07-17T11:35:52;25.10;96.40
3756;DHT22;1893;52.526;13.360;2022-07-17T11:38:29;25.20;95.40
3756;DHT22;1893;52.526;13.360;2022-07-17T11:40:56;25.90;96.70
3756;DHT22;1893;52.526;13.360;2022-07-17T11:43:22;25.80;94.80
3756;DHT22;1893;52.526;13.360;2022-07-17T11:45:47;26.20;94.70
3756;DHT22;1893;52.526;13.360;2022-07-17T11:48:14;23.90;91.70
3756;DHT22;1893;52.526;13.360;2022-07-17T11:50:39;23.10;67.40
3756;DHT22;1893;52.526;13.360;2022-07-17T11:53:06;22.60;63.10
3756;DHT22;1893;52.526;13.360;2022-07-17T11:55:39;23.00;90.20
3756;DHT22;1893;52.526;13.360;2022-07-17T11:58:05;23.50;73.60
3756;DHT22;1893;52.526;13.360;2022-07-17T12:00:31;23.50;73.90
3756;DHT22;1893;52.526;13.360;2022-07-17T12:03:03;23.50;74.10
3756;DHT22;1893;52.526;13.360;2022-07-17T12:05:31;23.20;70.30
3756;DHT22;1893;52.526;13.360;2022-07-17T12:07:57;23.60;73.60
3756;DHT22;1893;52.526;13.360;2022-07-17T12:10:24;23.30;68.50
3756;DHT22;1893;52.526;13.360;2022-07-17T12:13:04;23.20;87.00
3756;DHT22;1893;52.526;13.360;2022-07-17T12:15:38;23.00;65.10
3756;DHT22;1893;52.526;13.360;2022-07-17T12:18:05;22.80;62.00
3756;DHT22;1893;52.526;13.360;2022-07-17T12:20:50;22.80;65.30
3756;DHT22;1893;52.526;13.360;2022-07-17T12:23:33;23.20;68.20
3756;DHT22;1893;52.526;13.360;2022-07-17T12:26:13;23.70;72.40
3756;DHT22;1893;52.526;13.360;2022-07-17T12:28:42;23.00;63.90
3756;DHT22;1893;52.526;13.360;2022-07-17T12:31:09;22.80;63.00
3756;DHT22;1893;52.526;13.360;2022-07-17T12:33:35;23.00;65.00
3756;DHT22;1893;52.526;13.360;2022-07-17T12:36:00;23.00;64.30
3756;DHT22;1893;52.526;13.360;2022-07-17T12:38:26;22.90;62.70
3756;DHT22;1893;52.526;13.360;2022-07-17T12:40:52;22.70;61.00
3756;DHT22;1893;52.526;13.360;2022-07-17T12:43:17;22.90;62.10
3756;DHT22;1893;52.526;13.360;2022-07-17T12:45:43;22.90;61.50
3756;DHT22;1893;52.526;13.360;2022-07-17T12:48:08;23.20;64.40
3756;DHT22;1893;52.526;13.360;2022-07-17T12:50:34;23.10;59.70
3756;DHT22;1893;52.526;13.360;2022-07-17T12:52:59;23.00;58.80
3756;DHT22;1893;52.526;13.360;2022-07-17T12:55:25;23.10;57.60
3756;DHT22;1893;52.526;13.360;2022-07-17T12:57:51;22.70;54.50
3756;DHT22;1893;52.526;13.360;2022-07-17T13:00:16;22.80;54.80
3756;DHT22;1893;52.526;13.360;2022-07-17T13:02:42;22.90;56.10
3756;DHT22;1893;52.526;13.360;2022-07-17T13:05:08;22.80;56.50
3756;DHT22;1893;52.526;13.360;2022-07-17T13:07:34;23.10;57.20
3756;DHT22;1893;52.526;13.360;2022-07-17T13:09:59;23.20;58.10
3756;DHT22;1893;52.526;13.360;2022-07-17T13:12:25;23.20;57.30
3756;DHT22;1893;52.526;13.360;2022-07-17T13:14:51;23.40;58.40
3756;DHT22;1893;52.526;13.360;2022-07-17T13:17:16;23.70;60.40
3756;DHT22;1893;52.526;13.360;2022-07-17T13:19:42;23.70;60.40
3756;DHT22;1893;52.526;13.360;2022-07-17T13:22:08;23.60;58.00
3756;DHT22;1893;52.526;13.360;2022-07-17T13:24:33;23.40;55.70
3756;DHT22;1893;52.526;13.360;2022-07-17T13:26:59;23.30;54.50
3756;DHT22;1893;52.526;13.360;2022-07-17T13:29:25;22.80;49.40
3756;DHT22;1893;52.526;13.360;2022-07-17T13:31:52;22.80;48.60
3756;DHT22;1893;52.526;13.360;2022-07-17T13:34:18;22.80;48.90
3756;DHT22;1893;52.526;13.360;2022-07-17T13:36:43;23.10;51.20
3756;DHT22;1893;52.526;13.360;2022-07-17T13:39:09;23.20;52.20
3756;DHT22;1893;52.526;13.360;2022-07-17T13:41:37;23.10;50.30
3756;DHT22;1893;52.526;13.360;2022-07-17T13:44:04;23.20;51.50
3756;DHT22;1893;52.526;13.360;2022-07-17T13:46:29;23.00;48.60
3756;DHT22;1893;52.526;13.360;2022-07-17T13:48:55;22.80;47.60
3756;DHT22;1893;52.526;13.360;2022-07-17T13:51:20;23.30;51.80
3756;DHT22;1893;52.526;13.360;2022-07-17T13:53:46;23.70;54.20
3756;DHT22;1893;52.526;13.360;2022-07-17T13:56:12;23.50;53.20
3756;DHT22;1893;52.526;13.360;2022-07-17T13:58:37;23.80;53.20
3756;DHT22;1893;52.526;13.360;2022-07-17T14:01:03;23.70;50.80
3756;DHT22;1893;52.526;13.360;2022-07-17T14:03:29;24.00;52.70
3756;DHT22;1893;52.526;13.360;2022-07-17T14:05:54;23.90;49.80
3756;DHT22;1893;52.526;13.360;2022-07-17T14:08:20;24.10;51.50
3756;DHT22;1893;52.526;13.360;2022-07-17T14:10:46;23.70;46.30
3756;DHT22;1893;52.526;13.360;2022-07-17T14:13:11;23.70;46.60
3756;DHT22;1893;52.526;13.360;2022-07-17T14:15:37;23.40;43.80
3756;DHT22;1893;52.526;13.360;2022-07-17T14:18:03;23.40;42.70
3756;DHT22;1893;52.526;13.360;2022-07-17T14:20:29;23.50;43.80
3756;DHT22;1893;52.526;13.360;2022-07-17T14:22:54;23.40;42.70
3756;DHT22;1893;52.526;13.360;2022-07-17T14:25:20;23.50;43.00
3756;DHT22;1893;52.526;13.360;2022-07-17T14:27:45;23.60;42.80
3756;DHT22;1893;52.526;13.360;2022-07-17T14:30:11;23.50;41.10
3756;DHT22;1893;52.526;13.360;2022-07-17T14:32:37;23.40;40.10
3756;DHT22;1893;52.526;13.360;2022-07-17T14:35:04;23.50;40.80
3756;DHT22;1893;52.526;13.360;2022-07-17T14:37:30;23.70;42.40
3756;DHT22;1893;52.526;13.360;2022-07-17T14:39:56;23.70;42.30
3756;DHT22;1893;52.526;13.360;2022-07-17T14:42:22;23.70;41.50
3756;DHT22;1893;52.526;13.360;2022-07-17T14:44:48;23.80;41.80
3756;DHT22;1893;52.526;13.360;2022-07-17T14:47:14;23.80;41.90
3756;DHT22;1893;52.526;13.360;2022-07-17T14:49:41;23.90;41.60
3756;DHT22;1893;52.526;13.360;2022-07-17T14:52:07;23.80;40.90
3756;DHT22;1893;52.526;13.360;2022-07-17T14:54:32;23.70;40.00
3756;DHT22;1893;52.526;13.360;2022-07-17T14:56:58;23.80;41.10
3756;DHT22;1893;52.526;13.360;2022-07-17T14:59:24;23.80;40.40
3756;DHT22;1893;52.526;13.360;2022-07-17T15:01:49;23.90;41.20
3756;DHT22;1893;52.526;13.360;2022-07-17T15:04:15;23.90;38.90
3756;DHT22;1893;52.526;13.360;2022-07-17T15:06:40;23.50;35.70
3756;DHT22;1893;52.526;13.360;2022-07-17T15:09:07;23.70;36.20
3756;DHT22;1893;52.526;13.360;2022-07-17T15:11:32;23.90;37.50
3756;DHT22;1893;52.526;13.360;2022-07-17T15:13:58;23.90;36.50
3756;DHT22;1893;52.526;13.360;2022-07-17T15:16:23;23.90;36.60
3756;DHT22;1893;52.526;13.360;2022-07-17T15:18:49;24.10;37.80
3756;DHT22;1893;52.526;13.360;2022-07-17T15:21:15;23.90;35.30
3756;DHT22;1893;52.526;13.360;2022-07-17T15:23:40;23.90;35.90
3756;DHT22;1893;52.526;13.360;2022-07-17T15:26:08;23.90;34.00
3756;DHT22;1893;52.526;13.360;2022-07-17T15:28:34;24.00;33.00
3756;DHT22;1893;52.526;13.360;2022-07-17T15:31:00;23.90;31.60
3756;DHT22;1893;52.526;13.360;2022-07-17T15:33:26;23.80;30.10
3756;DHT22;1893;52.526;13.360;2022-07-17T15:35:53;23.80;29.20
3756;DHT22;1893;52.526;13.360;2022-07-17T15:38:19;23.50;26.90
3756;DHT22;1893;52.526;13.360;2022-07-17T15:40:44;23.40;26.70
3756;DHT22;1893;52.526;13.360;2022-07-17T15:43:10;23.50;27.10
3756;DHT22;1893;52.526;13.360;2022-07-17T15:45:36;23.60;26.60
3756;DHT22;1893;52.526;13.360;2022-07-17T15:48:01;23.60;26.00
3756;DHT22;1893;52.526;13.360;2022-07-17T15:50:27;23.50;24.80
3756;DHT22;1893;52.526;13.360;2022-07-17T15:52:52;23.70;26.10
3756;DHT22;1893;52.526;13.360;2022-07-17T15:55:18;23.60;24.70
3756;DHT22;1893;52.526;13.360;2022-07-17T15:57:44;23.50;23.30